sensor_id;sensor_type;location;lat;lon;timestamp;P1;durP1;ratioP1;P2;durP2;ratioP2
64789;SDS011;51223;51.816;5.862;2022-07-12T00:01:54;0.20;;;0.20;;
64789;SDS011;51223;51.816;5.862;2022-07-12T00:04:20;1.42;;;0.47;;
64789;SDS011;51223;51.816;5.862;2022-07-12T00:06:46;0.47;;;0.45;;
64789;SDS011;51223;51.816;5.862;2022-07-12T00:09:11;0.40;;;0.40;;
64789;SDS011;51223;51.816;5.862;2022-07-12T00:11:37;0.65;;;0.63;;
64789;SDS011;51223;51.816;5.862;2022-07-12T00:14:03;0.35;;;0.35;;
64789;SDS011;51223;51.816;5.862;2022-07-12T00:16:30;0.88;;;0.50;;
64789;SDS011;51223;51.816;5.862;2022-07-12T00:18:56;1.10;;;0.40;;
64789;SDS011;51223;51.816;5.862;2022-07-12T00:21:23;1.02;;;0.40;;
64789;SDS011;51223;51.816;5.862;2022-07-12T00:23:49;1.33;;;0.40;;
64789;SDS011;51223;51.816;5.862;2022-07-12T00:26:14;1.67;;;0.60;;
64789;SDS011;51223;51.816;5.862;2022-07-12T00:28:43;0.55;;;0.30;;
64789;SDS011;51223;51.816;5.862;2022-07-12T00:31:09;0.32;;;0.32;;
64789;SDS011;51223;51.816;5.862;2022-07-12T00:33:35;0.30;;;0.30;;
64789;SDS011;51223;51.816;5.862;2022-07-12T00:36:01;0.40;;;0.40;;
64789;SDS011;51223;51.816;5.862;2022-07-12T00:38:27;0.40;;;0.40;;
64789;SDS011;51223;51.816;5.862;2022-07-12T00:40:53;0.28;;;0.28;;
64789;SDS011;51223;51.816;5.862;2022-07-12T00:43:19;0.90;;;0.38;;
64789;SDS011;51223;51.816;5.862;2022-07-12T00:45:44;4.80;;;0.38;;
64789;SDS011;51223;51.816;5.862;2022-07-12T00:48:10;1.65;;;1.20;;
64789;SDS011;51223;51.816;5.862;2022-07-12T00:50:37;0.50;;;0.50;;
64789;SDS011;51223;51.816;5.862;2022-07-12T00:53:03;1.33;;;0.82;;
64789;SDS011;51223;51.816;5.862;2022-07-12T00:55:29;0.50;;;0.50;;
64789;SDS011;51223;51.816;5.862;2022-07-12T00:57:54;0.50;;;0.50;;
64789;SDS011;51223;51.816;5.862;2022-07-12T01:00:22;0.63;;;0.50;;
64789;SDS011;51223;51.816;5.862;2022-07-12T01:02:53;1.63;;;0.60;;
64789;SDS011;51223;51.816;5.862;2022-07-12T01:05:20;0.60;;;0.40;;
64789;SDS011;51223;51.816;5.862;2022-07-12T01:07:46;1.17;;;0.50;;
64789;SDS011;51223;51.816;5.862;2022-07-12T01:10:14;0.45;;;0.45;;
64789;SDS011;51223;51.816;5.862;2022-07-12T01:12:40;0.40;;;0.40;;
64789;SDS011;51223;51.816;5.862;2022-07-12T01:15:06;0.30;;;0.30;;
64789;SDS011;51223;51.816;5.862;2022-07-12T01:17:33;1.75;;;0.57;;
64789;SDS011;51223;51.816;5.862;2022-07-12T01:19:59;0.40;;;0.40;;
64789;SDS011;51223;51.816;5.862;2022-07-12T01:22:32;0.55;;;0.55;;
64789;SDS011;51223;51.816;5.862;2022-07-12T01:27:26;0.50;;;0.47;;
64789;SDS011;51223;51.816;5.862;2022-07-12T01:29:52;1.40;;;0.40;;
64789;SDS011;51223;51.816;5.862;2022-07-12T01:32:18;0.43;;;0.40;;
64789;SDS011;51223;51.816;5.862;2022-07-12T01:34:52;0.52;;;0.50;;
64789;SDS011;51223;51.816;5.862;2022-07-12T01:37:20;1.05;;;0.60;;
64789;SDS011;51223;51.816;5.862;2022-07-12T01:39:48;0.38;;;0.32;;
64789;SDS011;51223;51.816;5.862;2022-07-12T01:42:15;0.40;;;0.40;;
64789;SDS011;51223;51.816;5.862;2022-07-12T01:44:41;1.15;;;0.68;;
64789;SDS011;51223;51.816;5.862;2022-07-12T01:47:07;0.77;;;0.50;;
64789;SDS011;51223;51.816;5.862;2022-07-12T01:49:33;0.38;;;0.38;;
64789;SDS011;51223;51.816;5.862;2022-07-12T01:51:59;1.02;;;0.38;;
64789;SDS011;51223;51.816;5.862;2022-07-12T01:54:25;0.65;;;0.50;;
64789;SDS011;51223;51.816;5.862;2022-07-12T01:56:51;0.30;;;0.30;;
64789;SDS011;51223;51.816;5.862;2022-07-12T01:59:20;0.52;;;0.32;;
64789;SDS011;51223;51.816;5.862;2022-07-12T02:01:47;0.65;;;0.50;;
64789;SDS011;51223;51.816;5.862;2022-07-12T02:04:16;0.82;;;0.52;;
64789;SDS011;51223;51.816;5.862;2022-07-12T02:06:45;1.90;;;0.52;;
64789;SDS011;51223;51.816;5.862;2022-07-12T02:09:11;0.52;;;0.50;;
64789;SDS011;51223;51.816;5.862;2022-07-12T02:11:37;0.50;;;0.50;;
64789;SDS011;51223;51.816;5.862;2022-07-12T02:14:03;0.40;;;0.40;;
64789;SDS011;51223;51.816;5.862;2022-07-12T02:16:29;0.40;;;0.40;;
64789;SDS011;51223;51.816;5.862;2022-07-12T02:18:54;0.90;;;0.50;;
64789;SDS011;51223;51.816;5.862;2022-07-12T02:21:20;0.40;;;0.40;;
64789;SDS011;51223;51.816;5.862;2022-07-12T02:23:46;0.47;;;0.47;;
64789;SDS011;51223;51.816;5.862;2022-07-12T02:26:12;0.55;;;0.40;;
64789;SDS011;51223;51.816;5.862;2022-07-12T02:28:38;0.60;;;0.60;;
64789;SDS011;51223;51.816;5.862;2022-07-12T02:31:04;5.30;;;0.70;;
64789;SDS011;51223;51.816;5.862;2022-07-12T02:33:30;2.72;;;0.70;;
64789;SDS011;51223;51.816;5.862;2022-07-12T02:35:56;0.60;;;0.55;;
64789;SDS011;51223;51.816;5.862;2022-07-12T02:38:22;1.20;;;0.60;;
64789;SDS011;51223;51.816;5.862;2022-07-12T02:40:48;1.42;;;0.50;;
64789;SDS011;51223;51.816;5.862;2022-07-12T02:45:46;0.80;;;0.57;;
64789;SDS011;51223;51.816;5.862;2022-07-12T02:48:12;0.40;;;0.40;;
64789;SDS011;51223;51.816;5.862;2022-07-12T02:50:38;0.65;;;0.65;;
64789;SDS011;51223;51.816;5.862;2022-07-12T02:53:05;0.47;;;0.47;;
64789;SDS011;51223;51.816;5.862;2022-07-12T02:55:31;0.68;;;0.68;;
64789;SDS011;51223;51.816;5.862;2022-07-12T02:57:57;3.28;;;0.80;;
64789;SDS011;51223;51.816;5.862;2022-07-12T03:00:23;1.00;;;0.80;;
64789;SDS011;51223;51.816;5.862;2022-07-12T03:02:49;0.73;;;0.70;;
64789;SDS011;51223;51.816;5.862;2022-07-12T03:05:14;2.20;;;1.15;;
64789;SDS011;51223;51.816;5.862;2022-07-12T03:07:41;0.90;;;0.63;;
64789;SDS011;51223;51.816;5.862;2022-07-12T03:10:07;0.60;;;0.60;;
64789;SDS011;51223;51.816;5.862;2022-07-12T03:12:33;5.63;;;0.98;;
64789;SDS011;51223;51.816;5.862;2022-07-12T03:14:59;0.95;;;0.70;;
64789;SDS011;51223;51.816;5.862;2022-07-12T03:17:24;0.95;;;0.63;;
64789;SDS011;51223;51.816;5.862;2022-07-12T03:19:50;0.47;;;0.47;;
64789;SDS011;51223;51.816;5.862;2022-07-12T03:22:16;1.08;;;0.50;;
64789;SDS011;51223;51.816;5.862;2022-07-12T03:24:42;0.63;;;0.60;;
64789;SDS011;51223;51.816;5.862;2022-07-12T03:27:08;0.80;;;0.55;;
64789;SDS011;51223;51.816;5.862;2022-07-12T03:29:35;0.55;;;0.55;;
64789;SDS011;51223;51.816;5.862;2022-07-12T03:32:01;0.47;;;0.47;;
64789;SDS011;51223;51.816;5.862;2022-07-12T03:34:27;0.35;;;0.35;;
64789;SDS011;51223;51.816;5.862;2022-07-12T03:36:53;0.38;;;0.35;;
64789;SDS011;51223;51.816;5.862;2022-07-12T03:39:19;0.68;;;0.57;;
64789;SDS011;51223;51.816;5.862;2022-07-12T03:41:44;3.80;;;0.47;;
64789;SDS011;51223;51.816;5.862;2022-07-12T03:44:10;1.05;;;0.95;;
64789;SDS011;51223;51.816;5.862;2022-07-12T03:46:36;0.60;;;0.60;;
64789;SDS011;51223;51.816;5.862;2022-07-12T03:49:02;0.50;;;0.50;;
64789;SDS011;51223;51.816;5.862;2022-07-12T03:51:28;0.65;;;0.65;;
64789;SDS011;51223;51.816;5.862;2022-07-12T03:53:53;0.60;;;0.60;;
64789;SDS011;51223;51.816;5.862;2022-07-12T03:56:19;0.50;;;0.50;;
64789;SDS011;51223;51.816;5.862;2022-07-12T03:59:04;0.57;;;0.50;;
64789;SDS011;51223;51.816;5.862;2022-07-12T04:01:29;0.73;;;0.65;;
64789;SDS011;51223;51.816;5.862;2022-07-12T04:03:56;0.77;;;0.50;;
64789;SDS011;51223;51.816;5.862;2022-07-12T04:06:22;0.77;;;0.77;;
64789;SDS011;51223;51.816;5.862;2022-07-12T04:08:48;1.20;;;0.77;;
64789;SDS011;51223;51.816;5.862;2022-07-12T04:11:14;1.08;;;0.73;;
64789;SDS011;51223;51.816;5.862;2022-07-12T04:13:39;1.08;;;0.80;;
64789;SDS011;51223;51.816;5.862;2022-07-12T04:16:05;0.65;;;0.65;;
64789;SDS011;51223;51.816;5.862;2022-07-12T04:18:32;0.65;;;0.50;;
64789;SDS011;51223;51.816;5.862;2022-07-12T04:20:58;2.67;;;0.80;;
64789;SDS011;51223;51.816;5.862;2022-07-12T04:23:24;0.82;;;0.80;;
64789;SDS011;51223;51.816;5.862;2022-07-12T04:25:50;1.42;;;0.80;;
64789;SDS011;51223;51.816;5.862;2022-07-12T04:28:16;1.05;;;0.68;;
64789;SDS011;51223;51.816;5.862;2022-07-12T04:30:42;0.43;;;0.43;;
64789;SDS011;51223;51.816;5.862;2022-07-12T04:33:10;0.70;;;0.68;;
64789;SDS011;51223;51.816;5.862;2022-07-12T04:35:36;0.95;;;0.85;;
64789;SDS011;51223;51.816;5.862;2022-07-12T04:38:03;0.50;;;0.50;;
64789;SDS011;51223;51.816;5.862;2022-07-12T04:40:30;1.45;;;1.05;;
64789;SDS011;51223;51.816;5.862;2022-07-12T04:42:56;2.42;;;0.95;;
64789;SDS011;51223;51.816;5.862;2022-07-12T04:45:22;1.02;;;0.75;;
64789;SDS011;51223;51.816;5.862;2022-07-12T04:47:48;0.63;;;0.60;;
64789;SDS011;51223;51.816;5.862;2022-07-12T04:50:14;1.20;;;0.70;;
64789;SDS011;51223;51.816;5.862;2022-07-12T04:52:39;0.85;;;0.75;;
64789;SDS011;51223;51.816;5.862;2022-07-12T04:55:05;1.83;;;0.80;;
64789;SDS011;51223;51.816;5.862;2022-07-12T04:57:32;1.48;;;0.90;;
64789;SDS011;51223;51.816;5.862;2022-07-12T04:59:58;1.17;;;0.77;;
64789;SDS011;51223;51.816;5.862;2022-07-12T05:02:24;1.05;;;0.95;;
64789;SDS011;51223;51.816;5.862;2022-07-12T05:04:50;0.85;;;0.75;;
64789;SDS011;51223;51.816;5.862;2022-07-12T05:07:15;2.20;;;1.20;;
64789;SDS011;51223;51.816;5.862;2022-07-12T05:09:41;1.90;;;1.10;;
64789;SDS011;51223;51.816;5.862;2022-07-12T05:12:07;1.83;;;0.88;;
64789;SDS011;51223;51.816;5.862;2022-07-12T05:14:33;1.35;;;1.00;;
64789;SDS011;51223;51.816;5.862;2022-07-12T05:16:59;0.85;;;0.85;;
64789;SDS011;51223;51.816;5.862;2022-07-12T05:19:25;2.13;;;1.08;;
64789;SDS011;51223;51.816;5.862;2022-07-12T05:21:51;0.65;;;0.63;;
64789;SDS011;51223;51.816;5.862;2022-07-12T05:24:17;2.03;;;1.10;;
64789;SDS011;51223;51.816;5.862;2022-07-12T05:26:43;1.75;;;1.00;;
64789;SDS011;51223;51.816;5.862;2022-07-12T05:29:09;1.98;;;1.45;;
64789;SDS011;51223;51.816;5.862;2022-07-12T05:31:35;1.42;;;1.00;;
64789;SDS011;51223;51.816;5.862;2022-07-12T05:34:01;1.42;;;1.33;;
64789;SDS011;51223;51.816;5.862;2022-07-12T05:36:27;2.03;;;1.52;;
64789;SDS011;51223;51.816;5.862;2022-07-12T05:38:53;1.75;;;1.27;;
64789;SDS011;51223;51.816;5.862;2022-07-12T05:41:19;1.30;;;1.10;;
64789;SDS011;51223;51.816;5.862;2022-07-12T05:43:45;1.58;;;1.33;;
64789;SDS011;51223;51.816;5.862;2022-07-12T05:46:11;3.00;;;1.52;;
64789;SDS011;51223;51.816;5.862;2022-07-12T05:48:37;1.17;;;1.00;;
64789;SDS011;51223;51.816;5.862;2022-07-12T05:51:03;2.30;;;1.60;;
64789;SDS011;51223;51.816;5.862;2022-07-12T05:56:13;3.90;;;1.75;;
64789;SDS011;51223;51.816;5.862;2022-07-12T05:58:39;1.55;;;1.35;;
64789;SDS011;51223;51.816;5.862;2022-07-12T06:01:06;1.45;;;1.30;;
64789;SDS011;51223;51.816;5.862;2022-07-12T06:03:32;2.00;;;1.50;;
64789;SDS011;51223;51.816;5.862;2022-07-12T06:05:58;3.40;;;1.45;;
64789;SDS011;51223;51.816;5.862;2022-07-12T06:08:24;1.85;;;1.65;;
64789;SDS011;51223;51.816;5.862;2022-07-12T06:10:50;2.00;;;1.27;;
64789;SDS011;51223;51.816;5.862;2022-07-12T06:13:16;1.08;;;0.98;;
64789;SDS011;51223;51.816;5.862;2022-07-12T06:15:42;1.90;;;1.67;;
64789;SDS011;51223;51.816;5.862;2022-07-12T06:18:08;3.45;;;1.50;;
64789;SDS011;51223;51.816;5.862;2022-07-12T06:20:33;3.28;;;1.17;;
64789;SDS011;51223;51.816;5.862;2022-07-12T06:22:59;1.85;;;1.30;;
64789;SDS011;51223;51.816;5.862;2022-07-12T06:25:25;1.65;;;1.35;;
64789;SDS011;51223;51.816;5.862;2022-07-12T06:27:51;1.48;;;1.23;;
64789;SDS011;51223;51.816;5.862;2022-07-12T06:30:17;1.55;;;1.20;;
64789;SDS011;51223;51.816;5.862;2022-07-12T06:32:50;1.98;;;1.48;;
64789;SDS011;51223;51.816;5.862;2022-07-12T06:35:15;1.38;;;1.27;;
64789;SDS011;51223;51.816;5.862;2022-07-12T06:37:41;1.55;;;1.42;;
64789;SDS011;51223;51.816;5.862;2022-07-12T06:40:07;6.22;;;1.75;;
64789;SDS011;51223;51.816;5.862;2022-07-12T06:42:34;1.98;;;1.40;;
64789;SDS011;51223;51.816;5.862;2022-07-12T06:45:01;1.85;;;1.48;;
64789;SDS011;51223;51.816;5.862;2022-07-12T06:47:27;3.03;;;1.60;;
64789;SDS011;51223;51.816;5.862;2022-07-12T06:49:53;1.02;;;1.00;;
64789;SDS011;51223;51.816;5.862;2022-07-12T06:52:18;2.10;;;1.60;;
64789;SDS011;51223;51.816;5.862;2022-07-12T06:54:44;2.10;;;1.33;;
64789;SDS011;51223;51.816;5.862;2022-07-12T06:57:10;1.50;;;1.23;;
64789;SDS011;51223;51.816;5.862;2022-07-12T06:59:36;3.10;;;1.42;;
64789;SDS011;51223;51.816;5.862;2022-07-12T07:02:02;3.75;;;1.25;;
64789;SDS011;51223;51.816;5.862;2022-07-12T07:04:28;2.13;;;1.08;;
64789;SDS011;51223;51.816;5.862;2022-07-12T07:06:54;1.75;;;1.30;;
64789;SDS011;51223;51.816;5.862;2022-07-12T07:09:20;1.85;;;1.35;;
64789;SDS011;51223;51.816;5.862;2022-07-12T07:11:45;1.45;;;1.20;;
64789;SDS011;51223;51.816;5.862;2022-07-12T07:14:11;2.72;;;1.70;;
64789;SDS011;51223;51.816;5.862;2022-07-12T07:16:37;2.28;;;1.60;;
64789;SDS011;51223;51.816;5.862;2022-07-12T07:19:03;1.38;;;1.20;;
64789;SDS011;51223;51.816;5.862;2022-07-12T07:21:29;1.42;;;1.02;;
64789;SDS011;51223;51.816;5.862;2022-07-12T07:23:55;3.13;;;2.08;;
64789;SDS011;51223;51.816;5.862;2022-07-12T07:26:21;4.20;;;2.30;;
64789;SDS011;51223;51.816;5.862;2022-07-12T07:28:47;2.20;;;1.48;;
64789;SDS011;51223;51.816;5.862;2022-07-12T07:31:35;5.20;;;1.83;;
64789;SDS011;51223;51.816;5.862;2022-07-12T07:34:02;3.33;;;1.80;;
64789;SDS011;51223;51.816;5.862;2022-07-12T07:36:28;5.00;;;2.10;;
64789;SDS011;51223;51.816;5.862;2022-07-12T07:38:54;2.72;;;2.17;;
64789;SDS011;51223;51.816;5.862;2022-07-12T07:41:20;3.78;;;2.22;;
64789;SDS011;51223;51.816;5.862;2022-07-12T07:43:46;2.05;;;1.50;;
64789;SDS011;51223;51.816;5.862;2022-07-12T07:46:12;2.72;;;2.05;;
64789;SDS011;51223;51.816;5.862;2022-07-12T07:48:38;5.07;;;2.33;;
64789;SDS011;51223;51.816;5.862;2022-07-12T07:51:04;2.60;;;1.75;;
64789;SDS011;51223;51.816;5.862;2022-07-12T07:53:30;3.47;;;2.03;;
64789;SDS011;51223;51.816;5.862;2022-07-12T07:55:56;4.13;;;1.80;;
64789;SDS011;51223;51.816;5.862;2022-07-12T07:58:22;3.13;;;2.20;;
64789;SDS011;51223;51.816;5.862;2022-07-12T08:00:49;3.47;;;2.28;;
64789;SDS011;51223;51.816;5.862;2022-07-12T08:03:16;3.05;;;2.22;;
64789;SDS011;51223;51.816;5.862;2022-07-12T08:05:42;6.95;;;1.90;;
64789;SDS011;51223;51.816;5.862;2022-07-12T08:08:08;3.88;;;2.13;;
64789;SDS011;51223;51.816;5.862;2022-07-12T08:10:34;3.05;;;2.15;;
64789;SDS011;51223;51.816;5.862;2022-07-12T08:13:00;1.58;;;1.33;;
64789;SDS011;51223;51.816;5.862;2022-07-12T08:15:26;3.30;;;1.83;;
64789;SDS011;51223;51.816;5.862;2022-07-12T08:17:52;3.17;;;2.08;;
64789;SDS011;51223;51.816;5.862;2022-07-12T08:20:18;2.92;;;1.80;;
64789;SDS011;51223;51.816;5.862;2022-07-12T08:22:44;2.08;;;1.73;;
64789;SDS011;51223;51.816;5.862;2022-07-12T08:25:11;6.28;;;2.15;;
64789;SDS011;51223;51.816;5.862;2022-07-12T08:27:38;1.92;;;1.50;;
64789;SDS011;51223;51.816;5.862;2022-07-12T08:30:04;1.98;;;1.38;;
64789;SDS011;51223;51.816;5.862;2022-07-12T08:32:30;1.70;;;1.33;;
64789;SDS011;51223;51.816;5.862;2022-07-12T08:34:56;2.72;;;1.80;;
64789;SDS011;51223;51.816;5.862;2022-07-12T08:37:22;3.28;;;1.98;;
64789;SDS011;51223;51.816;5.862;2022-07-12T08:39:48;2.80;;;1.50;;
64789;SDS011;51223;51.816;5.862;2022-07-12T08:42:14;1.73;;;1.35;;
64789;SDS011;51223;51.816;5.862;2022-07-12T08:44:42;2.58;;;1.92;;
64789;SDS011;51223;51.816;5.862;2022-07-12T08:47:08;4.20;;;1.58;;
64789;SDS011;51223;51.816;5.862;2022-07-12T08:49:35;3.95;;;1.80;;
64789;SDS011;51223;51.816;5.862;2022-07-12T08:52:17;1.40;;;1.20;;
64789;SDS011;51223;51.816;5.862;2022-07-12T08:54:50;1.92;;;1.50;;
64789;SDS011;51223;51.816;5.862;2022-07-12T08:57:28;2.70;;;1.67;;
64789;SDS011;51223;51.816;5.862;2022-07-12T08:59:59;1.92;;;1.38;;
64789;SDS011;51223;51.816;5.862;2022-07-12T09:02:25;3.45;;;2.22;;
64789;SDS011;51223;51.816;5.862;2022-07-12T09:05:07;1.55;;;1.40;;
64789;SDS011;51223;51.816;5.862;2022-07-12T09:07:34;2.75;;;1.85;;
64789;SDS011;51223;51.816;5.862;2022-07-12T09:10:04;3.25;;;2.10;;
64789;SDS011;51223;51.816;5.862;2022-07-12T09:12:35;1.83;;;1.35;;
64789;SDS011;51223;51.816;5.862;2022-07-12T09:15:17;2.63;;;1.73;;
64789;SDS011;51223;51.816;5.862;2022-07-12T09:17:46;1.70;;;1.38;;
64789;SDS011;51223;51.816;5.862;2022-07-12T09:20:22;2.78;;;1.10;;
64789;SDS011;51223;51.816;5.862;2022-07-12T09:22:56;2.80;;;1.55;;
64789;SDS011;51223;51.816;5.862;2022-07-12T09:25:26;3.83;;;1.90;;
64789;SDS011;51223;51.816;5.862;2022-07-12T09:30:20;3.67;;;1.90;;
64789;SDS011;51223;51.816;5.862;2022-07-12T09:33:09;3.35;;;1.77;;
64789;SDS011;51223;51.816;5.862;2022-07-12T09:38:53;2.03;;;1.70;;
64789;SDS011;51223;51.816;5.862;2022-07-12T09:41:22;2.13;;;1.52;;
64789;SDS011;51223;51.816;5.862;2022-07-12T09:43:48;1.65;;;1.15;;
64789;SDS011;51223;51.816;5.862;2022-07-12T09:46:15;1.70;;;1.20;;
64789;SDS011;51223;51.816;5.862;2022-07-12T09:48:42;1.45;;;1.05;;
64789;SDS011;51223;51.816;5.862;2022-07-12T09:51:10;4.03;;;2.78;;
64789;SDS011;51223;51.816;5.862;2022-07-12T09:53:43;4.78;;;1.83;;
64789;SDS011;51223;51.816;5.862;2022-07-12T09:56:11;1.42;;;1.10;;
64789;SDS011;51223;51.816;5.862;2022-07-12T10:01:20;4.72;;;2.10;;
64789;SDS011;51223;51.816;5.862;2022-07-12T10:03:52;2.45;;;1.88;;
64789;SDS011;51223;51.816;5.862;2022-07-12T10:06:28;1.80;;;1.40;;
64789;SDS011;51223;51.816;5.862;2022-07-12T10:08:55;2.00;;;1.50;;
64789;SDS011;51223;51.816;5.862;2022-07-12T10:11:22;5.70;;;1.75;;
64789;SDS011;51223;51.816;5.862;2022-07-12T10:13:49;2.17;;;1.60;;
64789;SDS011;51223;51.816;5.862;2022-07-12T10:16:17;1.77;;;1.48;;
64789;SDS011;51223;51.816;5.862;2022-07-12T10:22:18;2.92;;;2.20;;
64789;SDS011;51223;51.816;5.862;2022-07-12T10:24:46;3.08;;;1.80;;
64789;SDS011;51223;51.816;5.862;2022-07-12T10:29:40;5.10;;;2.38;;
64789;SDS011;51223;51.816;5.862;2022-07-12T10:34:58;4.35;;;2.45;;
64789;SDS011;51223;51.816;5.862;2022-07-12T10:37:26;3.72;;;2.22;;
64789;SDS011;51223;51.816;5.862;2022-07-12T10:42:40;1.85;;;1.65;;
64789;SDS011;51223;51.816;5.862;2022-07-12T10:45:30;1.75;;;1.40;;
64789;SDS011;51223;51.816;5.862;2022-07-12T10:47:58;1.92;;;1.20;;
64789;SDS011;51223;51.816;5.862;2022-07-12T10:58:30;3.08;;;2.50;;
64789;SDS011;51223;51.816;5.862;2022-07-12T11:00:58;5.30;;;3.13;;
64789;SDS011;51223;51.816;5.862;2022-07-12T11:03:30;2.78;;;2.30;;
64789;SDS011;51223;51.816;5.862;2022-07-12T11:06:17;2.10;;;1.90;;
64789;SDS011;51223;51.816;5.862;2022-07-12T11:08:58;2.50;;;1.90;;
64789;SDS011;51223;51.816;5.862;2022-07-12T11:11:32;1.70;;;1.20;;
64789;SDS011;51223;51.816;5.862;2022-07-12T11:14:00;2.88;;;2.08;;
64789;SDS011;51223;51.816;5.862;2022-07-12T11:16:28;3.60;;;2.05;;
64789;SDS011;51223;51.816;5.862;2022-07-12T11:18:55;5.93;;;2.88;;
64789;SDS011;51223;51.816;5.862;2022-07-12T11:21:21;4.97;;;3.10;;
64789;SDS011;51223;51.816;5.862;2022-07-12T11:23:48;3.10;;;2.28;;
64789;SDS011;51223;51.816;5.862;2022-07-12T11:26:14;3.00;;;2.03;;
64789;SDS011;51223;51.816;5.862;2022-07-12T11:28:41;3.03;;;2.00;;
64789;SDS011;51223;51.816;5.862;2022-07-12T11:31:09;7.47;;;3.00;;
64789;SDS011;51223;51.816;5.862;2022-07-12T11:33:38;3.33;;;2.05;;
64789;SDS011;51223;51.816;5.862;2022-07-12T11:36:07;8.68;;;2.30;;
64789;SDS011;51223;51.816;5.862;2022-07-12T11:38:35;4.57;;;2.80;;
64789;SDS011;51223;51.816;5.862;2022-07-12T11:41:03;3.35;;;2.35;;
64789;SDS011;51223;51.816;5.862;2022-07-12T11:43:31;3.42;;;2.13;;
64789;SDS011;51223;51.816;5.862;2022-07-12T11:45:58;4.18;;;2.53;;
64789;SDS011;51223;51.816;5.862;2022-07-12T11:48:24;3.28;;;2.13;;
64789;SDS011;51223;51.816;5.862;2022-07-12T11:50:51;6.50;;;2.72;;
64789;SDS011;51223;51.816;5.862;2022-07-12T11:53:19;3.85;;;2.42;;
64789;SDS011;51223;51.816;5.862;2022-07-12T11:55:47;4.28;;;2.95;;
64789;SDS011;51223;51.816;5.862;2022-07-12T11:58:14;3.15;;;2.00;;
64789;SDS011;51223;51.816;5.862;2022-07-12T12:00:41;9.68;;;2.63;;
64789;SDS011;51223;51.816;5.862;2022-07-12T12:03:08;3.50;;;2.45;;
64789;SDS011;51223;51.816;5.862;2022-07-12T12:05:34;2.47;;;1.90;;
64789;SDS011;51223;51.816;5.862;2022-07-12T12:08:04;2.40;;;1.85;;
64789;SDS011;51223;51.816;5.862;2022-07-12T12:10:30;2.90;;;2.00;;
64789;SDS011;51223;51.816;5.862;2022-07-12T12:12:57;3.80;;;2.10;;
64789;SDS011;51223;51.816;5.862;2022-07-12T12:15:28;3.88;;;2.80;;
64789;SDS011;51223;51.816;5.862;2022-07-12T12:17:59;3.40;;;2.42;;
64789;SDS011;51223;51.816;5.862;2022-07-12T12:20:25;3.65;;;2.65;;
64789;SDS011;51223;51.816;5.862;2022-07-12T12:22:53;3.08;;;2.22;;
64789;SDS011;51223;51.816;5.862;2022-07-12T12:25:20;4.97;;;2.90;;
64789;SDS011;51223;51.816;5.862;2022-07-12T12:27:48;4.03;;;2.72;;
64789;SDS011;51223;51.816;5.862;2022-07-12T12:30:15;3.90;;;2.42;;
64789;SDS011;51223;51.816;5.862;2022-07-12T12:32:54;3.25;;;2.22;;
64789;SDS011;51223;51.816;5.862;2022-07-12T12:37:58;2.17;;;1.70;;
64789;SDS011;51223;51.816;5.862;2022-07-12T12:40:26;6.85;;;2.08;;
64789;SDS011;51223;51.816;5.862;2022-07-12T12:43:04;3.13;;;2.38;;
64789;SDS011;51223;51.816;5.862;2022-07-12T12:45:34;1.50;;;1.38;;
64789;SDS011;51223;51.816;5.862;2022-07-12T12:48:01;2.97;;;1.50;;
64789;SDS011;51223;51.816;5.862;2022-07-12T12:50:45;2.38;;;1.40;;
64789;SDS011;51223;51.816;5.862;2022-07-12T12:53:13;1.77;;;1.27;;
64789;SDS011;51223;51.816;5.862;2022-07-12T12:55:43;2.33;;;1.50;;
64789;SDS011;51223;51.816;5.862;2022-07-12T12:58:10;1.40;;;1.30;;
64789;SDS011;51223;51.816;5.862;2022-07-12T13:00:37;1.55;;;1.38;;
64789;SDS011;51223;51.816;5.862;2022-07-12T13:03:05;1.00;;;0.90;;
64789;SDS011;51223;51.816;5.862;2022-07-12T13:05:32;1.35;;;1.02;;
64789;SDS011;51223;51.816;5.862;2022-07-12T13:07:58;1.77;;;1.20;;
64789;SDS011;51223;51.816;5.862;2022-07-12T13:10:24;2.10;;;1.08;;
64789;SDS011;51223;51.816;5.862;2022-07-12T13:12:51;2.45;;;0.90;;
64789;SDS011;51223;51.816;5.862;2022-07-12T13:15:17;1.65;;;1.15;;
64789;SDS011;51223;51.816;5.862;2022-07-12T13:17:44;1.52;;;1.30;;
64789;SDS011;51223;51.816;5.862;2022-07-12T13:20:10;1.40;;;1.02;;
64789;SDS011;51223;51.816;5.862;2022-07-12T13:22:38;0.80;;;0.80;;
64789;SDS011;51223;51.816;5.862;2022-07-12T13:25:05;2.53;;;1.40;;
64789;SDS011;51223;51.816;5.862;2022-07-12T13:27:33;1.92;;;1.50;;
64789;SDS011;51223;51.816;5.862;2022-07-12T13:29:59;1.35;;;1.20;;
64789;SDS011;51223;51.816;5.862;2022-07-12T13:32:24;2.30;;;1.77;;
64789;SDS011;51223;51.816;5.862;2022-07-12T13:34:50;2.10;;;1.52;;
64789;SDS011;51223;51.816;5.862;2022-07-12T13:37:16;4.05;;;1.77;;
64789;SDS011;51223;51.816;5.862;2022-07-12T13:39:42;1.83;;;1.52;;
64789;SDS011;51223;51.816;5.862;2022-07-12T13:42:27;3.00;;;1.77;;
64789;SDS011;51223;51.816;5.862;2022-07-12T13:44:53;2.08;;;1.65;;
64789;SDS011;51223;51.816;5.862;2022-07-12T13:47:19;3.67;;;1.95;;
64789;SDS011;51223;51.816;5.862;2022-07-12T13:49:49;1.25;;;1.13;;
64789;SDS011;51223;51.816;5.862;2022-07-12T13:52:15;4.75;;;1.55;;
64789;SDS011;51223;51.816;5.862;2022-07-12T13:54:41;1.20;;;1.10;;
64789;SDS011;51223;51.816;5.862;2022-07-12T13:57:09;2.55;;;1.15;;
64789;SDS011;51223;51.816;5.862;2022-07-12T13:59:36;2.25;;;1.15;;
64789;SDS011;51223;51.816;5.862;2022-07-12T14:02:03;1.58;;;0.60;;
64789;SDS011;51223;51.816;5.862;2022-07-12T14:04:29;1.40;;;1.00;;
64789;SDS011;51223;51.816;5.862;2022-07-12T14:06:55;1.42;;;1.33;;
64789;SDS011;51223;51.816;5.862;2022-07-12T14:09:22;1.65;;;1.17;;
64789;SDS011;51223;51.816;5.862;2022-07-12T14:11:47;3.22;;;1.20;;
64789;SDS011;51223;51.816;5.862;2022-07-12T14:14:13;0.85;;;0.60;;
64789;SDS011;51223;51.816;5.862;2022-07-12T14:16:40;1.25;;;1.10;;
64789;SDS011;51223;51.816;5.862;2022-07-12T14:19:06;0.98;;;0.90;;
64789;SDS011;51223;51.816;5.862;2022-07-12T14:21:31;2.65;;;1.90;;
64789;SDS011;51223;51.816;5.862;2022-07-12T14:23:58;1.13;;;1.02;;
64789;SDS011;51223;51.816;5.862;2022-07-12T14:26:27;2.83;;;1.27;;
64789;SDS011;51223;51.816;5.862;2022-07-12T14:28:53;1.35;;;1.13;;
64789;SDS011;51223;51.816;5.862;2022-07-12T14:31:19;1.50;;;1.40;;
64789;SDS011;51223;51.816;5.862;2022-07-12T14:33:45;2.72;;;1.42;;
64789;SDS011;51223;51.816;5.862;2022-07-12T14:36:11;2.25;;;1.38;;
64789;SDS011;51223;51.816;5.862;2022-07-12T14:38:37;3.00;;;1.50;;
64789;SDS011;51223;51.816;5.862;2022-07-12T14:41:03;1.58;;;1.08;;
64789;SDS011;51223;51.816;5.862;2022-07-12T14:43:29;2.85;;;2.00;;
64789;SDS011;51223;51.816;5.862;2022-07-12T14:45:55;1.67;;;1.58;;
64789;SDS011;51223;51.816;5.862;2022-07-12T14:48:21;3.20;;;1.70;;
64789;SDS011;51223;51.816;5.862;2022-07-12T14:50:47;2.70;;;1.88;;
64789;SDS011;51223;51.816;5.862;2022-07-12T14:53:13;2.28;;;1.95;;
64789;SDS011;51223;51.816;5.862;2022-07-12T14:55:39;1.70;;;1.50;;
64789;SDS011;51223;51.816;5.862;2022-07-12T14:58:06;4.97;;;1.70;;
64789;SDS011;51223;51.816;5.862;2022-07-12T15:00:35;3.00;;;1.95;;
64789;SDS011;51223;51.816;5.862;2022-07-12T15:03:01;2.22;;;1.35;;
64789;SDS011;51223;51.816;5.862;2022-07-12T15:05:27;2.28;;;1.50;;
64789;SDS011;51223;51.816;5.862;2022-07-12T15:07:54;1.92;;;1.60;;
64789;SDS011;51223;51.816;5.862;2022-07-12T15:10:20;2.33;;;1.45;;
64789;SDS011;51223;51.816;5.862;2022-07-12T15:12:46;1.75;;;1.33;;
64789;SDS011;51223;51.816;5.862;2022-07-12T15:15:12;4.38;;;1.38;;
64789;SDS011;51223;51.816;5.862;2022-07-12T15:17:38;2.13;;;1.63;;
64789;SDS011;51223;51.816;5.862;2022-07-12T15:20:04;3.15;;;1.55;;
64789;SDS011;51223;51.816;5.862;2022-07-12T15:22:31;2.55;;;1.63;;
64789;SDS011;51223;51.816;5.862;2022-07-12T15:24:57;2.55;;;1.67;;
64789;SDS011;51223;51.816;5.862;2022-07-12T15:27:23;4.97;;;1.70;;